createdAt,value
2023-10-20T00:00:36.654Z,101076.16
2023-10-20T00:05:41.952Z,101078.91
2023-10-20T00:10:47.233Z,101080.31
2023-10-20T00:15:52.699Z,101036.28
2023-10-20T00:20:57.890Z,101075.06
2023-10-20T00:26:03.573Z,101078.47
2023-10-20T00:31:13.016Z,101087.63
2023-10-20T00:36:19.016Z,101077.34
2023-10-20T00:41:24.555Z,101083.06
2023-10-20T00:46:30.754Z,101073.88
2023-10-20T00:51:36.237Z,101072.25
2023-10-20T00:56:44.117Z,101075.97
2023-10-20T01:01:49.536Z,101069.53
2023-10-20T01:06:55.791Z,101067.88
2023-10-20T01:12:01.436Z,101073.78
2023-10-20T01:17:06.984Z,101077.09
2023-10-20T01:22:12.395Z,101077.44
2023-10-20T01:27:18.093Z,101078.13
2023-10-20T01:32:23.738Z,101071.34
2023-10-20T01:37:29.567Z,101076.69
2023-10-20T01:42:34.887Z,101075.56
2023-10-20T01:47:40.573Z,101075.72
2023-10-20T01:52:46.273Z,101069.75
2023-10-20T01:57:52.672Z,101075.44
2023-10-20T02:02:58.112Z,101068.13
2023-10-20T02:08:04.170Z,101067.50
2023-10-20T02:13:09.493Z,101064.53
2023-10-20T02:18:15.350Z,101069.06
2023-10-20T02:23:42.480Z,101053.72
2023-10-20T02:28:49.149Z,101067.16
2023-10-20T02:33:54.480Z,101078.19
2023-10-20T02:39:00.523Z,101073.47
2023-10-20T02:44:06.055Z,101076.41
2023-10-20T02:49:11.509Z,101068.59
2023-10-20T02:54:17.007Z,101064.72
2023-10-20T02:59:22.423Z,101056.84
2023-10-20T03:04:28.029Z,101046.22
2023-10-20T03:09:33.516Z,101045.16
2023-10-20T03:14:38.825Z,101056.84
2023-10-20T03:19:47.191Z,101064.63
2023-10-20T03:24:52.552Z,101065.63
2023-10-20T03:29:58.155Z,101077.25
2023-10-20T03:35:04.095Z,101083.91
2023-10-20T03:40:18.082Z,101099.41
2023-10-20T03:45:26.376Z,101079.78
2023-10-20T03:50:37.642Z,101080.88
2023-10-20T03:55:43.242Z,101080.75
2023-10-20T04:00:48.763Z,101087.53
2023-10-20T04:05:55.421Z,101094.97
2023-10-20T04:11:01.767Z,101084.03
2023-10-20T04:16:14.597Z,101091.28
2023-10-20T04:21:19.692Z,101110.09
2023-10-20T04:26:23.827Z,101119.34
2023-10-20T04:31:46.689Z,101119.47
2023-10-20T04:37:09.458Z,101137.72
2023-10-20T04:42:19.539Z,101141.38
2023-10-20T04:47:26.712Z,101141.91
2023-10-20T04:52:49.774Z,101144.50
2023-10-20T04:57:54.193Z,101160.03
2023-10-20T05:03:04.133Z,101139.97
2023-10-20T05:08:15.028Z,101153.78
2023-10-20T05:13:25.279Z,101138.47
2023-10-20T05:18:33.405Z,101150.00
2023-10-20T05:23:40.782Z,101147.28
2023-10-20T05:28:45.853Z,101126.31
2023-10-20T05:33:50.052Z,101125.41
2023-10-20T05:38:54.501Z,101123.38
2023-10-20T05:43:59.770Z,101120.56
2023-10-20T05:49:03.939Z,101120.81
2023-10-20T05:54:09.319Z,101126.88
2023-10-20T05:59:14.498Z,101136.66
2023-10-20T06:04:19.012Z,101134.97
2023-10-20T06:09:23.765Z,101152.41
2023-10-20T06:14:28.581Z,101137.22
2023-10-20T06:19:33.542Z,101144.59
2023-10-20T06:24:37.826Z,101136.66
2023-10-20T06:29:45.036Z,101130.72
2023-10-20T06:34:50.057Z,101133.16
2023-10-20T06:39:54.195Z,101138.06
2023-10-20T06:44:58.448Z,101146.66
2023-10-20T06:50:02.809Z,101153.59
2023-10-20T06:55:40.186Z,101151.53
2023-10-20T07:00:32.578Z,101152.34
2023-10-20T07:05:39.332Z,101131.22
2023-10-20T07:10:43.813Z,101125.72
2023-10-20T07:15:48.008Z,101131.97
2023-10-20T07:20:54.583Z,101119.72
2023-10-20T07:26:00.722Z,101120.41
2023-10-20T07:31:15.083Z,101130.94
2023-10-20T07:36:19.599Z,101124.38
2023-10-20T07:41:24.082Z,101130.47
2023-10-20T07:46:28.299Z,101096.84
2023-10-20T07:51:32.574Z,101109.50
2023-10-20T07:56:37.234Z,101105.31
2023-10-20T08:01:41.996Z,101107.09
2023-10-20T08:06:46.394Z,101104.41
2023-10-20T08:11:51.875Z,101094.25
2023-10-20T08:16:57.328Z,101098.03
2023-10-20T08:22:01.780Z,101072.09
2023-10-20T08:27:06.426Z,101066.22
2023-10-20T08:32:10.674Z,101063.59
2023-10-20T08:37:15.057Z,101062.78
2023-10-20T08:42:20.132Z,101050.59
2023-10-20T08:47:26.847Z,101054.47
2023-10-20T08:52:33.024Z,101034.28
2023-10-20T08:57:37.221Z,101037.56
2023-10-20T09:02:41.620Z,101023.88
2023-10-20T09:07:55.736Z,101020.16
2023-10-20T09:12:59.961Z,101004.19
2023-10-20T09:18:04.380Z,101003.41
2023-10-20T09:23:13.471Z,100995.31
2023-10-20T09:28:19.677Z,100985.03
2023-10-20T09:33:25.628Z,100978.75
2023-10-20T09:38:32.601Z,100969.75
2023-10-20T09:48:49.514Z,100980.47
2023-10-20T09:53:55.750Z,100979.78
2023-10-20T09:59:03.707Z,100979.19
2023-10-20T10:04:10.456Z,100985.94
2023-10-20T10:09:16.822Z,100992.88
2023-10-20T10:14:23.967Z,100986.97
2023-10-20T10:19:29.758Z,100990.84
2023-10-20T10:24:38.497Z,100996.69
2023-10-20T10:29:55.802Z,100977.53
2023-10-20T10:35:01.013Z,100978.16
2023-10-20T10:40:15.833Z,100982.66
2023-10-20T10:45:36.042Z,100978.59
2023-10-20T10:50:50.860Z,100977.03
2023-10-20T10:55:56.134Z,100986.16
2023-10-20T11:01:03.161Z,100955.19
2023-10-20T11:06:10.249Z,100987.88
2023-10-20T11:11:17.416Z,100988.44
2023-10-20T11:16:21.662Z,100982.47
2023-10-20T11:21:31.821Z,100984.63
2023-10-20T11:26:40.992Z,100988.91
2023-10-20T11:31:46.874Z,100961.03
2023-10-20T11:36:51.223Z,100979.09
2023-10-20T11:41:55.972Z,100976.75
2023-10-20T11:47:00.398Z,100977.09
2023-10-20T11:52:04.644Z,100965.13
2023-10-20T11:57:10.796Z,100959.78
2023-10-20T12:02:15.488Z,100965.47
2023-10-20T12:07:22.443Z,100966.63
2023-10-20T12:12:26.821Z,100957.69
2023-10-20T12:17:31.076Z,100957.84
2023-10-20T12:22:35.483Z,100931.25
2023-10-20T12:27:40.922Z,100953.06
2023-10-20T12:32:45.478Z,100950.75
2023-10-20T12:37:49.660Z,100940.16
2023-10-20T12:42:54.005Z,100938.84
2023-10-20T12:47:58.371Z,100924.00
2023-10-20T12:53:05.127Z,100940.97
2023-10-20T12:58:10.789Z,100946.81
2023-10-20T13:03:16.586Z,100955.13
2023-10-20T13:08:22.879Z,100949.69
2023-10-20T13:13:30.527Z,100952.03
2023-10-20T13:18:37.566Z,100955.28
2023-10-20T13:23:42.913Z,100953.97
2023-10-20T13:28:48.415Z,100953.84
2023-10-20T13:33:53.955Z,100951.09
2023-10-20T13:38:59.341Z,100955.00
2023-10-20T13:44:05.271Z,100945.50
2023-10-20T13:49:10.571Z,100943.06
2023-10-20T13:54:15.975Z,100944.31
2023-10-20T13:59:21.906Z,100945.59
2023-10-20T14:04:27.430Z,100942.44
2023-10-20T14:09:32.925Z,100946.94
2023-10-20T14:14:38.562Z,100952.88
2023-10-20T14:19:44.186Z,100943.59
2023-10-20T14:24:49.726Z,100925.56
2023-10-20T14:29:56.076Z,100948.38
2023-10-20T14:35:01.748Z,100942.63
2023-10-20T14:40:13.477Z,100937.09
2023-10-20T14:45:19.113Z,100948.25
2023-10-20T14:50:26.781Z,100960.56
2023-10-20T14:55:37.958Z,100956.44
2023-10-20T15:00:51.079Z,100955.72
2023-10-20T15:05:56.491Z,100949.38
2023-10-20T15:11:08.666Z,100961.81
2023-10-20T15:16:19.820Z,100966.47
2023-10-20T15:21:26.810Z,100960.41
2023-10-20T15:26:32.329Z,100965.72
2023-10-20T15:31:37.895Z,100958.94
2023-10-20T15:36:49.607Z,100950.69
2023-10-20T15:41:55.715Z,100937.28
2023-10-20T15:47:01.343Z,100920.34
2023-10-20T15:52:06.976Z,100914.50
2023-10-20T15:57:12.158Z,100908.25
2023-10-20T16:02:17.963Z,100896.06
2023-10-20T16:07:23.684Z,100900.53
2023-10-20T16:12:29.535Z,100891.69
2023-10-20T16:17:35.309Z,100885.63
2023-10-20T16:22:41.105Z,100881.66
2023-10-20T16:27:46.510Z,100876.75
2023-10-20T16:32:52.184Z,100875.19
2023-10-20T16:37:57.961Z,100881.50
2023-10-20T16:43:03.472Z,100881.28
2023-10-20T16:48:09.174Z,100874.41
2023-10-20T16:53:14.656Z,100876.22
2023-10-20T16:58:20.562Z,100869.53
2023-10-20T17:03:26.142Z,100873.81
2023-10-20T17:08:32.291Z,100847.69
2023-10-20T17:13:37.793Z,100853.44
2023-10-20T17:18:43.376Z,100839.09
2023-10-20T17:23:49.145Z,100859.44
2023-10-20T17:28:54.811Z,100858.00
2023-10-20T17:34:00.235Z,100846.28
2023-10-20T17:39:07.931Z,100845.53
2023-10-20T17:44:14.163Z,100835.81
2023-10-20T17:49:19.579Z,100849.81
2023-10-20T17:54:25.086Z,100839.91
2023-10-20T17:59:31.176Z,100828.59
2023-10-20T18:04:36.739Z,100818.66
2023-10-20T18:09:42.330Z,100817.03
2023-10-20T18:14:48.584Z,100821.69
2023-10-20T18:19:54.222Z,100818.47
2023-10-20T18:24:59.795Z,100813.78
2023-10-20T18:30:05.835Z,100796.19
2023-10-20T18:35:12.404Z,100794.91
2023-10-20T18:40:18.013Z,100775.88
2023-10-20T18:45:24.482Z,100772.19
2023-10-20T18:50:29.860Z,100771.00
2023-10-20T18:55:35.716Z,100756.81
2023-10-20T19:00:41.187Z,100742.44
2023-10-20T19:05:46.901Z,100739.19
2023-10-20T19:10:52.572Z,100733.31
2023-10-20T19:15:58.243Z,100735.34
2023-10-20T19:21:06.596Z,100732.88
2023-10-20T19:26:12.358Z,100736.75
2023-10-20T19:31:17.748Z,100725.38
2023-10-20T19:36:23.203Z,100717.91
2023-10-20T19:41:28.687Z,100707.78
2023-10-20T19:46:34.213Z,100705.94
2023-10-20T19:51:39.886Z,100704.75
2023-10-20T19:56:45.567Z,100711.41
2023-10-20T20:01:51.239Z,100708.59
2023-10-20T20:06:56.784Z,100699.03
2023-10-20T20:12:02.114Z,100693.13
2023-10-20T20:17:07.715Z,100679.09
2023-10-20T20:22:13.089Z,100677.66
2023-10-20T20:27:18.504Z,100665.94
2023-10-20T20:32:24.050Z,100578.53
2023-10-20T20:37:31.242Z,100645.94
2023-10-20T20:42:37.360Z,100655.72
2023-10-20T20:47:43.116Z,100648.38
2023-10-20T20:52:48.761Z,100640.66
2023-10-20T20:57:54.298Z,100625.28
2023-10-20T21:03:00.045Z,100608.47
2023-10-20T21:08:05.832Z,100590.84
2023-10-20T21:13:11.241Z,100591.66
2023-10-20T21:18:16.868Z,100586.19
2023-10-20T21:23:22.393Z,100587.75
2023-10-20T21:28:28.227Z,100576.66
2023-10-20T21:33:34.612Z,100563.69
2023-10-20T21:38:40.082Z,100548.88
2023-10-20T21:43:45.415Z,100530.66
2023-10-20T21:48:51.223Z,100532.88
2023-10-20T21:53:56.813Z,100509.97
2023-10-20T21:59:02.366Z,100480.81
2023-10-20T22:04:08.236Z,100481.22
2023-10-20T22:09:14.511Z,100473.06
2023-10-20T22:14:20.348Z,100464.97
2023-10-20T22:19:26.320Z,100467.97
2023-10-20T22:24:31.835Z,100458.84
2023-10-20T22:29:37.995Z,100435.44
2023-10-20T22:34:43.942Z,100424.09
2023-10-20T22:39:50.430Z,100410.88
2023-10-20T22:44:58.052Z,100394.03
2023-10-20T22:50:08.220Z,100391.72
2023-10-20T22:55:16.924Z,100379.34
2023-10-20T23:00:23.876Z,100366.09
2023-10-20T23:05:30.242Z,100370.31
2023-10-20T23:10:35.932Z,100356.47
2023-10-20T23:15:42.944Z,100334.34
2023-10-20T23:20:48.517Z,100347.03
2023-10-20T23:25:54.132Z,100339.34
2023-10-20T23:30:59.619Z,100331.72
2023-10-20T23:36:05.603Z,100331.34
2023-10-20T23:41:11.361Z,100312.97
2023-10-20T23:46:16.799Z,100307.75
2023-10-20T23:51:22.828Z,100300.00
2023-10-20T23:56:28.320Z,100291.41
